CheckWX is a tool to help pilots better visualize weather data.  It is not intended as a substitute for an official pre-flight weather briefing.

02:49:43 UTC

KCKB METAR
North Central West Virginia Airport
Clarksburg, West Virginia, USA
Current

57 mins ago

KCKB 230153Z 00000KT 10SM CLR 22/15 A3004 RMK AO2 SLP156 T02220150
Observed
Sep-23 @ 01:53 UTC
Visibility
10 SM
Flight Rules
VFR
Cloud Levels
  • Clear skies
Temperature
22°C / 72°F
Dewpoint
15°C / 59°F
Humidity
65%
Altimeter
30.04" Hg
Pressure
1017.32 hPa
Previous

2 hours ago

KCKB 230053Z 00000KT 10SM CLR 24/15 A3004 RMK AO2 SLP159 T02440150
Observed
Sep-23 @ 00:53 UTC
Visibility
10 SM
Flight Rules
VFR
Cloud Levels
  • Clear skies
Temperature
24°C / 75°F
Dewpoint
15°C / 59°F
Humidity
57%
Altimeter
30.04" Hg
Pressure
1017.32 hPa
Previous

3 hours ago

KCKB 222353Z 16003KT 10SM CLR 28/14 A3004 RMK AO2 SLP157 T02780144 10333 20272 56007
Observed
Sep-22 @ 23:53 UTC
Wind
  • 160° at 3 KTS
Visibility
10 SM
Flight Rules
VFR
Cloud Levels
  • Clear skies
Temperature
28°C / 82°F
Dewpoint
14°C / 57°F
Heat Index
28°C / 82°F
Humidity
42%
Altimeter
30.04" Hg
Pressure
1017.32 hPa